Time;durP1;ratioP1;P1;durP2;ratioP2;P2;SDS_P1;SDS_P2;PMS_P1;PMS_P2;Temp;Humidity;BMP_temperature;BMP_pressure;BME280_temperature;BME280_humidity;BME280_pressure;Samples;Min_cycle;Max_cycle;Signal;HPM_P1;HPM_P2
2022/10/02 00:02:26;;;;;;;16.73;2.83;;;11.40;99.90;;;;;;5000152;28;20251;-80
2022/10/02 00:04:57;;;;;;;16.17;2.88;;;11.40;99.90;;;;;;5015422;28;20048;-82
2022/10/02 00:07:36;;;;;;;21.40;3.25;;;11.40;99.90;;;;;;5014110;28;20117;-80
2022/10/02 00:10:22;;;;;;;16.33;2.58;;;11.40;99.90;;;;;;4999834;28;20048;-83
2022/10/02 00:12:51;;;;;;;13.43;3.60;;;11.40;99.90;;;;;;5016986;28;20450;-80
2022/10/02 00:15:26;;;;;;;13.35;2.97;;;11.40;99.90;;;;;;5001678;28;20124;-80
2022/10/02 00:17:56;;;;;;;14.43;2.55;;;11.40;99.90;;;;;;5014780;28;20202;-80
2022/10/02 00:20:30;;;;;;;16.10;3.22;;;11.40;99.90;;;;;;5010621;28;20038;-81
2022/10/02 00:23:22;;;;;;;12.65;2.75;;;11.40;99.90;;;;;;4997699;28;20042;-80
2022/10/02 00:26:05;;;;;;;14.88;3.13;;;11.40;99.90;;;;;;5004517;28;20113;-80
2022/10/02 00:28:46;;;;;;;13.95;2.53;;;11.40;99.90;;;;;;4981102;28;20045;-81
2022/10/02 00:31:44;;;;;;;14.32;2.67;;;11.30;99.90;;;;;;5001873;28;20037;-81
2022/10/02 00:34:47;;;;;;;14.13;2.47;;;11.40;99.90;;;;;;4995577;28;20042;-81
2022/10/02 00:37:37;;;;;;;13.75;2.05;;;11.30;99.90;;;;;;4995901;28;20045;-81
2022/10/02 00:40:29;;;;;;;11.68;2.20;;;11.30;99.90;;;;;;5018495;28;20545;-82
2022/10/02 00:43:14;;;;;;;13.73;2.05;;;11.30;99.90;;;;;;4990468;28;20057;-80
2022/10/02 00:46:25;;;;;;;13.75;2.60;;;11.20;99.90;;;;;;5020121;28;20112;-80
2022/10/02 00:48:57;;;;;;;9.30;1.80;;;11.20;99.90;;;;;;4979699;28;20054;-80
2022/10/02 00:51:41;;;;;;;10.63;2.15;;;11.10;99.90;;;;;;4997626;28;20120;-80
2022/10/02 00:54:10;;;;;;;11.32;2.10;;;11.10;99.90;;;;;;4987807;28;20033;-80
2022/10/02 00:56:55;;;;;;;12.57;2.67;;;11.20;99.90;;;;;;5002201;28;20045;-80
2022/10/02 01:00:00;;;;;;;9.17;1.87;;;11.10;99.90;;;;;;5019934;28;20037;-81
2022/10/02 01:02:25;;;;;;;9.40;2.20;;;11.10;99.90;;;;;;5000806;28;21673;-80
2022/10/02 01:04:51;;;;;;;10.77;1.90;;;11.10;99.90;;;;;;5002941;28;20050;-80
2022/10/02 01:07:17;;;;;;;11.38;1.83;;;11.10;99.90;;;;;;5017200;28;20041;-80
2022/10/02 01:09:44;;;;;;;11.48;1.77;;;11.10;99.90;;;;;;4999444;28;20045;-80
2022/10/02 01:12:11;;;;;;;14.80;2.10;;;11.10;99.90;;;;;;5016475;28;20049;-80
2022/10/02 01:14:39;;;;;;;10.05;2.00;;;11.10;99.90;;;;;;5017389;28;20407;-81
2022/10/02 01:17:17;;;;;;;16.45;1.88;;;11.10;99.90;;;;;;5000038;28;20173;-83
2022/10/02 01:19:43;;;;;;;10.70;1.40;;;11.10;99.90;;;;;;5006283;28;20140;-82
2022/10/02 01:22:27;;;;;;;12.73;2.08;;;11.10;99.90;;;;;;5002439;28;20128;-80
2022/10/02 01:24:57;;;;;;;8.25;2.55;;;11.20;99.90;;;;;;5002022;28;20077;-80
2022/10/02 01:27:24;;;;;;;14.70;1.98;;;11.20;99.90;;;;;;5021361;28;20029;-82
2022/10/02 01:30:09;;;;;;;12.80;2.13;;;11.20;99.90;;;;;;5009485;28;20556;-81
2022/10/02 01:32:39;;;;;;;13.02;2.35;;;11.30;99.90;;;;;;5007642;28;20505;-80
2022/10/02 01:35:05;;;;;;;11.15;1.30;;;11.20;99.90;;;;;;4999564;28;20057;-81
2022/10/02 01:37:36;;;;;;;7.40;1.15;;;11.30;99.90;;;;;;5000963;28;20042;-81
2022/10/02 01:40:08;;;;;;;7.20;1.65;;;11.30;99.90;;;;;;5004023;28;20077;-81
2022/10/02 01:42:35;;;;;;;12.70;1.70;;;11.40;99.90;;;;;;5000125;28;20041;-80
2022/10/02 01:45:03;;;;;;;14.50;1.27;;;11.40;99.90;;;;;;5000507;28;20044;-81
2022/10/02 01:47:59;;;;;;;13.93;1.50;;;11.40;99.90;;;;;;5009953;28;20049;-80
2022/10/02 01:50:48;;;;;;;12.23;1.80;;;11.40;99.90;;;;;;4999969;28;20092;-80
2022/10/02 01:53:27;;;;;;;10.25;1.40;;;11.40;99.90;;;;;;5003120;28;20303;-83
2022/10/02 01:56:17;;;;;;;5.95;1.50;;;11.40;99.90;;;;;;5008724;28;20135;-80
2022/10/02 01:59:10;;;;;;;9.70;1.13;;;11.40;99.90;;;;;;4990694;28;20053;-80
2022/10/02 02:01:59;;;;;;;10.07;1.40;;;11.40;99.90;;;;;;4999570;28;20045;-81
2022/10/02 02:04:31;;;;;;;9.88;1.35;;;11.40;99.90;;;;;;4998727;28;20042;-81
2022/10/02 02:07:14;;;;;;;8.85;1.85;;;11.40;99.90;;;;;;5005738;28;20084;-81
2022/10/02 02:10:20;;;;;;;10.68;1.77;;;11.40;99.90;;;;;;5009392;28;20041;-81
2022/10/02 02:12:57;;;;;;;11.88;1.88;;;11.40;99.90;;;;;;5008010;28;20143;-82
2022/10/02 02:15:53;;;;;;;9.25;1.60;;;11.30;99.90;;;;;;4999347;28;20053;-81
2022/10/02 02:18:34;;;;;;;11.63;1.23;;;11.30;99.90;;;;;;4999576;28;20033;-82
2022/10/02 02:21:06;;;;;;;13.40;1.58;;;11.20;99.90;;;;;;5016410;28;20572;-80
2022/10/02 02:23:35;;;;;;;9.07;1.80;;;11.30;99.90;;;;;;5003354;28;20088;-81
2022/10/02 02:26:08;;;;;;;9.50;1.83;;;11.20;99.90;;;;;;5000691;28;20053;-82
2022/10/02 02:28:36;;;;;;;8.90;2.03;;;11.20;99.90;;;;;;5004858;28;20042;-81
2022/10/02 02:31:04;;;;;;;8.00;1.75;;;11.10;99.90;;;;;;5002654;28;20037;-81
2022/10/02 02:33:39;;;;;;;12.13;2.15;;;11.10;99.90;;;;;;4999544;28;20131;-80
2022/10/02 02:36:12;;;;;;;13.52;2.55;;;11.00;99.90;;;;;;5015944;28;20052;-81
2022/10/02 02:38:55;;;;;;;9.82;1.77;;;11.10;99.90;;;;;;5001496;28;20045;-81
2022/10/02 02:41:27;;;;;;;10.77;1.90;;;11.00;99.90;;;;;;4996946;28;20052;-81
2022/10/02 02:44:13;;;;;;;12.13;1.77;;;11.00;99.90;;;;;;4991165;28;20581;-82
2022/10/02 02:47:05;;;;;;;12.05;1.90;;;11.00;99.90;;;;;;5001682;28;20397;-81
2022/10/02 02:49:49;;;;;;;10.07;1.50;;;11.00;99.90;;;;;;4999130;28;20441;-81
2022/10/02 02:52:25;;;;;;;12.70;2.53;;;10.90;99.90;;;;;;5006308;28;20046;-81
2022/10/02 02:55:27;;;;;;;12.07;2.20;;;10.90;99.90;;;;;;4995852;28;20049;-81
2022/10/02 02:58:15;;;;;;;11.60;2.08;;;10.90;99.90;;;;;;4969285;28;20104;-81
2022/10/02 03:00:41;;;;;;;12.43;2.47;;;11.00;99.90;;;;;;5019685;28;20057;-83
2022/10/02 03:03:06;;;;;;;11.30;2.15;;;11.00;99.90;;;;;;4999214;28;20041;-84
2022/10/02 03:05:34;;;;;;;9.70;2.40;;;11.10;99.90;;;;;;5010101;28;20033;-80
2022/10/02 03:08:04;;;;;;;10.02;2.05;;;11.10;99.90;;;;;;4993652;28;20034;-81
2022/10/02 03:11:07;;;;;;;14.30;2.35;;;11.00;99.90;;;;;;5018264;28;20121;-81
2022/10/02 03:14:09;;;;;;;14.45;2.28;;;11.10;99.90;;;;;;5011092;28;20547;-81
2022/10/02 03:16:45;;;;;;;16.02;2.70;;;11.20;99.90;;;;;;4998534;28;20049;-81
2022/10/02 03:19:14;;;;;;;14.57;2.28;;;11.20;99.90;;;;;;4999903;28;20049;-81
2022/10/02 03:22:03;;;;;;;17.38;2.55;;;11.20;99.90;;;;;;4995003;28;20069;-83
2022/10/02 03:24:47;;;;;;;8.02;2.42;;;11.30;99.90;;;;;;5001153;28;20042;-82
2022/10/02 03:27:23;;;;;;;11.15;2.22;;;11.30;99.90;;;;;;5000579;28;20060;-81
2022/10/02 03:29:55;;;;;;;12.70;2.22;;;11.30;99.90;;;;;;5006021;28;20037;-81
2022/10/02 03:32:23;;;;;;;9.32;2.33;;;11.30;99.90;;;;;;5005419;28;20638;-81
2022/10/02 03:34:48;;;;;;;14.35;1.67;;;11.40;99.90;;;;;;5003207;28;20041;-81
2022/10/02 03:37:14;;;;;;;19.50;2.78;;;11.30;99.90;;;;;;4984153;28;20041;-81
2022/10/02 03:39:44;;;;;;;12.52;2.08;;;11.30;99.90;;;;;;4999901;28;20046;-82
2022/10/02 03:42:12;;;;;;;15.95;2.30;;;11.30;99.90;;;;;;5020243;28;20050;-82
2022/10/02 03:44:37;;;;;;;11.60;2.15;;;11.30;99.90;;;;;;5003624;28;20073;-81
2022/10/02 03:47:03;;;;;;;14.10;2.38;;;11.30;99.90;;;;;;5003359;28;20413;-81
2022/10/02 03:49:28;;;;;;;14.13;2.53;;;11.20;99.90;;;;;;5006206;28;20037;-82
2022/10/02 03:51:54;;;;;;;7.25;2.00;;;11.30;99.90;;;;;;4996472;28;20038;-81
2022/10/02 03:54:20;;;;;;;10.95;1.77;;;11.30;99.90;;;;;;4996417;28;20040;-81
2022/10/02 03:57:00;;;;;;;12.15;2.58;;;11.30;99.90;;;;;;4998231;28;20053;-83
2022/10/02 03:59:35;;;;;;;10.18;1.63;;;11.20;99.90;;;;;;5008258;28;20499;-81
2022/10/02 04:02:05;;;;;;;10.13;1.20;;;11.20;99.90;;;;;;5019054;28;20485;-81
2022/10/02 04:04:41;;;;;;;7.55;1.88;;;11.20;99.90;;;;;;5000612;28;20045;-81
2022/10/02 04:07:14;;;;;;;13.32;2.03;;;11.10;99.90;;;;;;4996507;28;20038;-81
2022/10/02 04:10:06;;;;;;;11.52;2.03;;;11.10;99.90;;;;;;4997967;28;20040;-81
2022/10/02 04:12:39;;;;;;;10.02;1.95;;;11.10;99.90;;;;;;4996846;28;20053;-81
2022/10/02 04:15:24;;;;;;;9.57;1.58;;;11.00;99.90;;;;;;5005623;28;20068;-84
2022/10/02 04:18:09;;;;;;;10.45;1.55;;;11.00;99.90;;;;;;5010484;28;20103;-81
2022/10/02 04:20:58;;;;;;;9.15;1.30;;;11.00;99.90;;;;;;4995065;28;20055;-82
2022/10/02 04:23:36;;;;;;;9.55;1.15;;;11.00;99.90;;;;;;4989845;28;20033;-81
2022/10/02 04:26:21;;;;;;;9.10;1.42;;;10.90;99.90;;;;;;5003228;28;20068;-82
2022/10/02 04:28:52;;;;;;;8.07;1.00;;;10.80;99.90;;;;;;5004673;28;20540;-81
2022/10/02 04:31:18;;;;;;;6.40;1.65;;;10.80;99.90;;;;;;5010465;28;20038;-81
2022/10/02 04:33:43;;;;;;;6.15;1.63;;;10.70;99.90;;;;;;5003312;28;20049;-81
2022/10/02 04:36:25;;;;;;;5.47;0.88;;;10.60;99.90;;;;;;5000734;28;20070;-81
2022/10/02 04:39:28;;;;;;;4.75;0.90;;;10.60;99.90;;;;;;5006790;28;20037;-82
2022/10/02 04:42:07;;;;;;;10.23;1.38;;;10.50;99.90;;;;;;5012670;28;20045;-81
2022/10/02 04:45:04;;;;;;;7.85;1.50;;;10.50;99.90;;;;;;5005031;28;20046;-81
2022/10/02 04:48:13;;;;;;;7.00;0.73;;;10.50;99.90;;;;;;4999902;28;20038;-83
2022/10/02 04:50:41;;;;;;;10.63;1.23;;;10.50;99.90;;;;;;5004416;28;20059;-81
2022/10/02 04:53:48;;;;;;;17.58;1.88;;;10.40;99.90;;;;;;5005413;28;20042;-81
2022/10/02 04:56:33;;;;;;;;;;;10.50;99.90;;;;;;4936774;29;20503;-81
2022/10/02 04:59:20;;;;;;;6.25;1.10;;;10.60;99.90;;;;;;4995720;28;20013;-83
2022/10/02 05:02:05;;;;;;;11.55;1.25;;;10.50;99.90;;;;;;4992214;28;20076;-81
2022/10/02 05:05:01;;;;;;;8.43;1.42;;;10.50;99.90;;;;;;5000560;28;20042;-81
2022/10/02 05:07:59;;;;;;;7.15;1.48;;;10.60;99.90;;;;;;5006164;28;20041;-81
2022/10/02 05:10:38;;;;;;;12.27;1.30;;;10.50;99.90;;;;;;4985623;28;20038;-81
2022/10/02 05:13:23;;;;;;;14.18;1.80;;;10.50;99.90;;;;;;5007021;28;20061;-81
2022/10/02 05:16:19;;;;;;;12.37;1.50;;;10.40;99.90;;;;;;5019176;28;20053;-80
2022/10/02 05:19:17;;;;;;;11.67;1.23;;;10.40;99.90;;;;;;5001371;28;20045;-81
2022/10/02 05:21:59;;;;;;;14.43;1.80;;;10.40;99.90;;;;;;4992776;28;20041;-82
2022/10/02 05:24:53;;;;;;;15.65;2.20;;;10.40;99.90;;;;;;5001318;28;20061;-85
2022/10/02 05:27:49;;;;;;;11.23;2.03;;;10.40;99.90;;;;;;5001349;28;20121;-81
2022/10/02 05:30:18;;;;;;;7.70;1.70;;;10.40;99.90;;;;;;5019559;28;20029;-81
2022/10/02 05:33:10;;;;;;;9.77;1.33;;;10.40;99.90;;;;;;5014661;28;20037;-81
2022/10/02 05:35:49;;;;;;;5.30;1.23;;;10.40;99.90;;;;;;4984611;28;20045;-81
2022/10/02 05:38:36;;;;;;;12.63;1.20;;;10.30;99.90;;;;;;5009406;28;20049;-81
2022/10/02 05:41:14;;;;;;;8.68;1.40;;;10.40;99.90;;;;;;5001957;28;20056;-81
2022/10/02 05:43:48;;;;;;;9.77;1.17;;;10.40;99.90;;;;;;4983364;28;20502;-84
2022/10/02 05:46:22;;;;;;;12.57;2.33;;;10.40;99.90;;;;;;5004418;28;20033;-84
2022/10/02 05:48:59;;;;;;;13.52;2.08;;;10.40;99.90;;;;;;5000060;28;20533;-81
2022/10/02 05:51:56;;;;;;;8.88;1.45;;;10.40;99.90;;;;;;5003332;28;20029;-81
2022/10/02 05:54:38;;;;;;;5.70;0.57;;;10.50;99.90;;;;;;5004888;28;20050;-81
2022/10/02 05:57:24;;;;;;;10.20;1.60;;;10.40;99.90;;;;;;5006564;28;20046;-80
2022/10/02 05:59:59;;;;;;;14.63;2.17;;;10.40;99.90;;;;;;5001481;28;20045;-81
2022/10/02 06:02:31;;;;;;;8.83;1.53;;;10.50;99.90;;;;;;5003191;28;20060;-81
2022/10/02 06:05:05;;;;;;;12.77;1.30;;;10.60;99.90;;;;;;4999761;28;20485;-80
2022/10/02 06:07:32;;;;;;;9.18;1.15;;;10.70;99.90;;;;;;5018354;28;20578;-81
2022/10/02 06:10:15;;;;;;;12.68;1.58;;;10.90;99.90;;;;;;5004589;28;20504;-83
2022/10/02 06:12:49;;;;;;;7.28;1.30;;;11.50;99.90;;;;;;5006581;28;20073;-81
2022/10/02 06:15:25;;;;;;;16.60;1.90;;;11.90;99.90;;;;;;5007621;28;20128;-82
2022/10/02 06:17:58;;;;;;;7.18;1.50;;;12.40;99.90;;;;;;5001464;28;20042;-81
2022/10/02 06:20:34;;;;;;;5.40;1.25;;;12.80;99.90;;;;;;5007505;28;20112;-83
2022/10/02 06:23:12;;;;;;;5.32;0.70;;;13.50;99.90;;;;;;4997691;28;20038;-83
2022/10/02 06:25:49;;;;;;;6.10;1.00;;;14.20;99.90;;;;;;5002728;28;20033;-81
2022/10/02 06:28:22;;;;;;;8.68;1.85;;;15.00;99.90;;;;;;4999661;28;20044;-83
2022/10/02 06:31:20;;;;;;;7.88;1.20;;;15.70;99.90;;;;;;5015444;28;20049;-82
2022/10/02 06:33:46;;;;;;;7.13;1.20;;;16.10;99.90;;;;;;5004486;28;20516;-81
2022/10/02 06:36:32;;;;;;;7.32;1.30;;;16.10;99.90;;;;;;4997529;28;20038;-81
2022/10/02 06:39:23;;;;;;;11.80;2.22;;;15.90;99.90;;;;;;4995676;28;20103;-82
2022/10/02 06:42:01;;;;;;;12.40;1.42;;;15.60;99.90;;;;;;4999466;28;20716;-82
2022/10/02 06:44:40;;;;;;;9.38;2.03;;;15.30;99.90;;;;;;5010982;28;20037;-82
2022/10/02 06:47:34;;;;;;;7.13;1.20;;;15.00;99.90;;;;;;4998856;28;20065;-84
2022/10/02 06:50:27;;;;;;;11.00;1.80;;;14.80;99.90;;;;;;5014371;28;20033;-84
2022/10/02 06:53:18;;;;;;;6.88;1.10;;;14.60;99.90;;;;;;4996024;28;20041;-82
2022/10/02 06:55:58;;;;;;;8.63;2.15;;;14.50;99.90;;;;;;5010709;28;20548;-85
2022/10/02 06:58:48;;;;;;;13.63;2.75;;;14.70;99.90;;;;;;5002794;28;20042;-83
2022/10/02 07:01:59;;;;;;;13.35;2.00;;;14.70;99.90;;;;;;4997149;28;20450;-83
2022/10/02 07:05:23;;;;;;;8.15;1.58;;;14.50;99.90;;;;;;4983777;28;20128;-82
2022/10/02 07:09:16;;;;;;;12.68;2.28;;;14.50;99.90;;;;;;4923581;29;20086;-83
2022/10/02 07:12:08;;;;;;;10.77;1.73;;;14.50;99.90;;;;;;4912543;28;20186;-85
2022/10/02 07:15:30;;;;;;;14.07;2.15;;;14.50;99.90;;;;;;4925731;28;20043;-86
2022/10/02 07:26:14;;;;;;;8.27;1.90;;;14.90;99.90;;;;;;4826074;29;20573;-87
2022/10/02 07:29:05;;;;;;;9.02;2.20;;;14.60;99.90;;;;;;4835406;29;20085;-85
2022/10/02 07:32:10;;;;;;;10.75;2.22;;;14.70;99.90;;;;;;4943251;29;20043;-85
2022/10/02 07:35:40;;;;;;;12.52;1.75;;;14.40;99.90;;;;;;4890879;29;20556;-84
2022/10/02 07:38:50;;;;;;;12.68;1.83;;;14.30;99.90;;;;;;4931526;28;20059;-84
2022/10/02 07:41:29;;;;;;;11.35;1.85;;;14.10;99.90;;;;;;5009644;28;20564;-85
2022/10/02 07:44:37;;;;;;;15.00;2.28;;;14.10;99.90;;;;;;4996059;28;20891;-84
2022/10/02 07:47:48;;;;;;;11.60;1.58;;;14.00;99.90;;;;;;4996269;28;20416;-84
2022/10/02 07:50:44;;;;;;;15.47;2.00;;;14.00;99.90;;;;;;4998848;28;20033;-84
2022/10/02 07:57:03;;;;;;;11.32;2.15;;;14.10;99.90;;;;;;4968031;28;20074;-87
2022/10/02 07:59:31;;;;;;;12.18;2.15;;;14.20;99.90;;;;;;4989528;28;20029;-85
2022/10/02 08:01:57;;;;;;;15.43;1.92;;;14.20;99.90;;;;;;5011164;28;20041;-85
2022/10/02 08:04:28;;;;;;;10.85;2.67;;;14.20;99.90;;;;;;5008529;28;20046;-84
2022/10/02 08:06:59;;;;;;;12.70;2.05;;;14.40;99.90;;;;;;5011235;28;20077;-85
2022/10/02 08:09:40;;;;;;;10.13;1.90;;;14.50;99.90;;;;;;4992869;28;20099;-83
2022/10/02 08:12:19;;;;;;;14.25;2.30;;;14.50;99.90;;;;;;5002504;28;20493;-85
2022/10/02 08:14:49;;;;;;;9.52;2.22;;;14.50;99.90;;;;;;5004435;28;20075;-84
2022/10/02 08:17:46;;;;;;;12.57;2.05;;;14.40;99.90;;;;;;5006110;28;20076;-84
2022/10/02 08:20:23;;;;;;;10.80;1.23;;;14.40;99.90;;;;;;4995061;28;20058;-84
2022/10/02 08:30:12;;;;;;;15.40;3.35;;;14.60;99.90;;;;;;5014510;28;20469;-86
2022/10/02 08:32:38;;;;;;;8.68;1.90;;;14.70;99.90;;;;;;4995491;28;20041;-86
2022/10/02 08:35:18;;;;;;;11.65;1.92;;;14.80;99.90;;;;;;4994062;28;20150;-88
2022/10/02 08:38:15;;;;;;;16.58;2.42;;;14.80;99.90;;;;;;5001843;28;20112;-84
2022/10/02 08:41:14;;;;;;;13.45;1.95;;;15.00;99.90;;;;;;4994973;28;20050;-84
2022/10/02 08:44:10;;;;;;;12.77;1.83;;;15.00;99.90;;;;;;4994728;28;21641;-84
2022/10/02 08:47:32;;;;;;;15.40;2.67;;;15.20;99.90;;;;;;5000642;28;20060;-83
2022/10/02 08:50:02;;;;;;;9.48;1.60;;;15.30;99.90;;;;;;4941304;29;20051;-84
2022/10/02 08:52:34;;;;;;;14.55;2.33;;;15.30;99.90;;;;;;4998217;28;20134;-84
2022/10/02 08:55:18;;;;;;;15.90;2.35;;;15.40;99.90;;;;;;4993682;28;20056;-84
2022/10/02 08:58:30;;;;;;;15.35;2.70;;;15.40;99.90;;;;;;5001409;28;20064;-84
2022/10/02 09:02:12;;;;;;;10.38;1.92;;;15.50;99.90;;;;;;5006234;28;20048;-85
2022/10/02 09:06:06;;;;;;;17.17;2.20;;;15.60;99.90;;;;;;4958594;28;20045;-87
2022/10/02 09:17:01;;;;;;;10.40;2.22;;;16.00;99.90;;;;;;5748269;23;20156;-88
2022/10/02 09:20:00;;;;;;;15.70;2.35;;;16.20;99.90;;;;;;4931781;28;20082;-88
2022/10/02 09:22:46;;;;;;;18.20;3.03;;;16.20;99.90;;;;;;4963395;28;20134;-88
2022/10/02 09:25:35;;;;;;;10.98;2.75;;;16.40;99.90;;;;;;4973423;28;20129;-89
2022/10/02 09:28:26;;;;;;;11.55;2.05;;;16.40;99.90;;;;;;4951779;28;20081;-88
2022/10/02 09:31:23;;;;;;;11.40;1.80;;;16.60;99.90;;;;;;4989527;28;20054;-87
2022/10/02 09:34:27;;;;;;;13.93;2.63;;;16.70;99.90;;;;;;4952536;28;20082;-88
2022/10/02 09:37:19;;;;;;;15.93;2.42;;;16.70;99.90;;;;;;4953540;28;20050;-87
2022/10/02 09:40:36;;;;;;;15.57;2.58;;;16.80;99.90;;;;;;4952595;28;20548;-85
2022/10/02 09:43:05;;;;;;;11.48;2.90;;;16.80;99.90;;;;;;4953951;28;20572;-85
2022/10/02 09:45:51;;;;;;;8.88;1.85;;;16.80;99.90;;;;;;4954606;28;20493;-86
2022/10/02 09:48:41;;;;;;;14.02;3.33;;;16.90;99.90;;;;;;4966247;28;20181;-86
2022/10/02 09:51:26;;;;;;;10.98;2.80;;;16.90;99.90;;;;;;4966881;28;20173;-87
2022/10/02 09:54:29;;;;;;;9.82;1.65;;;17.10;99.90;;;;;;4955547;28;20034;-86
2022/10/02 09:57:21;;;;;;;12.27;2.00;;;17.20;99.90;;;;;;4953674;28;20129;-87
2022/10/02 10:00:14;;;;;;;10.18;1.98;;;17.30;99.90;;;;;;4950668;28;20043;-86
2022/10/02 10:03:04;;;;;;;12.40;2.78;;;17.40;99.90;;;;;;4981473;28;20042;-88
2022/10/02 10:06:05;;;;;;;10.90;2.05;;;17.40;99.90;;;;;;4951972;28;20042;-87
2022/10/02 10:08:58;;;;;;;13.13;2.22;;;17.50;99.90;;;;;;4955927;28;20502;-87
2022/10/02 10:11:42;;;;;;;9.80;2.22;;;17.40;99.90;;;;;;4955697;28;20096;-86
2022/10/02 10:14:28;;;;;;;10.25;1.70;;;17.50;99.90;;;;;;4971829;28;20062;-86
2022/10/02 10:17:18;;;;;;;77.55;4.68;;;17.70;99.90;;;;;;4951701;28;20046;-86
2022/10/02 10:20:15;;;;;;;11.73;2.15;;;17.90;99.90;;;;;;4973225;28;20049;-87
2022/10/02 10:23:02;;;;;;;8.27;2.20;;;17.90;99.90;;;;;;4953480;28;20039;-88
2022/10/02 10:25:40;;;;;;;9.52;1.77;;;17.80;99.90;;;;;;4968907;28;20740;-88
2022/10/02 10:28:23;;;;;;;14.52;3.22;;;18.10;99.90;;;;;;4965951;28;20039;-86
2022/10/02 10:30:51;;;;;;;9.93;1.85;;;18.20;99.90;;;;;;4945350;28;20126;-87
2022/10/02 10:33:49;;;;;;;13.55;2.45;;;18.40;99.90;;;;;;4948050;28;20494;-86
2022/10/02 10:39:28;;;;;;;11.93;1.95;;;18.60;99.90;;;;;;4970506;28;20054;-86
2022/10/02 10:42:05;;;;;;;8.73;2.13;;;18.70;99.90;;;;;;4951995;28;20042;-87
2022/10/02 10:44:50;;;;;;;12.05;2.60;;;18.90;99.90;;;;;;4948898;28;20034;-87
2022/10/02 10:47:50;;;;;;;8.50;1.92;;;19.00;99.90;;;;;;4970483;28;20105;-86
2022/10/02 10:50:34;;;;;;;7.78;1.33;;;19.20;99.90;;;;;;4952048;28;20035;-87
2022/10/02 10:53:27;;;;;;;9.32;1.65;;;19.40;99.90;;;;;;4950108;28;20061;-86
2022/10/02 10:56:48;;;;;;;11.00;1.70;;;19.60;99.90;;;;;;4954400;28;20089;-87
2022/10/02 10:59:35;;;;;;;9.88;1.40;;;19.80;99.90;;;;;;4958129;28;20047;-86
2022/10/02 11:02:37;;;;;;;8.93;1.70;;;20.00;99.90;;;;;;4944748;28;21483;-86
2022/10/02 11:05:36;;;;;;;10.25;1.92;;;20.00;99.90;;;;;;4967216;28;20117;-87
2022/10/02 11:08:32;;;;;;;10.93;1.77;;;20.00;99.90;;;;;;4957942;28;20128;-87
2022/10/02 11:11:16;;;;;;;;;;;19.80;99.90;;;;;;4945810;28;20561;-85
2022/10/02 11:14:04;;;;;;;11.00;2.17;;;19.60;99.90;;;;;;4966654;28;19918;-85
2022/10/02 11:16:48;;;;;;;9.70;1.98;;;19.30;99.90;;;;;;4979740;28;20057;-88
2022/10/02 11:19:44;;;;;;;11.20;2.00;;;19.00;99.90;;;;;;4964701;28;20049;-86
2022/10/02 11:22:30;;;;;;;11.32;1.88;;;18.50;99.90;;;;;;4953888;28;20042;-86
2022/10/02 11:25:14;;;;;;;9.52;2.17;;;18.10;99.90;;;;;;4951757;28;20034;-87
2022/10/02 11:28:10;;;;;;;12.30;2.03;;;17.80;99.90;;;;;;4968436;28;20043;-86
2022/10/02 11:30:59;;;;;;;13.50;1.90;;;17.60;99.90;;;;;;4951787;28;20066;-87
2022/10/02 11:33:31;;;;;;;18.38;3.88;;;17.40;99.90;;;;;;4942763;28;20047;-87
2022/10/02 11:36:04;;;;;;;14.15;2.95;;;17.20;99.90;;;;;;4964326;28;20815;-86
2022/10/02 11:38:54;;;;;;;11.65;2.42;;;17.10;99.90;;;;;;4952560;28;20125;-86
2022/10/02 11:41:59;;;;;;;12.43;1.75;;;17.10;99.90;;;;;;4948208;28;20046;-87
2022/10/02 11:44:50;;;;;;;13.98;2.25;;;17.20;99.90;;;;;;4943233;28;20088;-87
2022/10/02 11:47:45;;;;;;;11.57;2.50;;;17.40;99.90;;;;;;4953901;28;20498;-85
2022/10/02 11:50:23;;;;;;;9.93;2.20;;;17.80;99.90;;;;;;4949749;28;20405;-85
2022/10/02 11:53:03;;;;;;;12.60;1.75;;;18.00;99.90;;;;;;4949181;28;20119;-85
2022/10/02 11:56:13;;;;;;;13.50;2.88;;;18.30;99.90;;;;;;4966607;28;20046;-86
2022/10/02 11:58:47;;;;;;;13.43;2.13;;;18.70;99.90;;;;;;4923631;28;20050;-86
2022/10/02 12:01:31;;;;;;;10.80;2.42;;;18.90;99.90;;;;;;4964852;28;20104;-86
2022/10/02 12:04:03;;;;;;;10.45;1.80;;;19.20;99.90;;;;;;4969703;28;20402;-86
2022/10/02 12:06:47;;;;;;;12.18;2.00;;;19.40;99.90;;;;;;4969030;28;20655;-86
2022/10/02 12:10:08;;;;;;;10.80;2.28;;;19.40;99.90;;;;;;4979755;28;20034;-86
2022/10/02 12:13:31;;;;;;;10.90;2.03;;;19.10;99.90;;;;;;4968970;28;20041;-88
2022/10/02 12:17:15;;;;;;;14.48;2.08;;;19.00;99.90;;;;;;4903251;29;20107;-87
2022/10/02 12:27:08;;;;;;;11.27;2.70;;;19.00;99.90;;;;;;4957940;28;20034;-86
2022/10/02 12:29:52;;;;;;;10.90;1.50;;;19.00;99.90;;;;;;4960104;28;20039;-88
2022/10/02 12:32:27;;;;;;;8.13;1.92;;;18.90;99.90;;;;;;4950199;28;20046;-87
2022/10/02 12:35:19;;;;;;;11.10;2.00;;;18.80;99.90;;;;;;4950475;28;20081;-87
2022/10/02 12:38:15;;;;;;;10.38;2.33;;;18.80;99.90;;;;;;4951771;28;20089;-88
2022/10/02 12:45:10;;;;;;;11.23;1.95;;;19.00;99.90;;;;;;4959573;28;20080;-86
2022/10/02 12:48:22;;;;;;;12.88;2.65;;;19.10;99.90;;;;;;4901304;29;20088;-88
2022/10/02 12:51:18;;;;;;;9.68;2.08;;;19.20;99.90;;;;;;4901992;28;20050;-87
2022/10/02 13:16:23;;;;;;;12.07;2.08;;;18.80;99.90;;;;;;4924052;28;20560;-88
2022/10/02 13:19:32;;;;;;;7.25;1.60;;;18.30;99.90;;;;;;4970106;28;20042;-88
2022/10/02 13:22:36;;;;;;;8.48;1.65;;;17.90;99.90;;;;;;4955757;28;20077;-87
2022/10/02 13:25:24;;;;;;;8.85;2.00;;;17.70;99.90;;;;;;4948739;28;20061;-87
2022/10/02 13:28:29;;;;;;;11.73;1.73;;;17.70;99.90;;;;;;4999309;28;20049;-88
2022/10/02 13:31:43;;;;;;;7.43;2.25;;;17.80;99.90;;;;;;4968605;28;20049;-87
2022/10/02 13:35:27;;;;;;;8.25;1.60;;;17.90;99.90;;;;;;4982396;28;20462;-87
2022/10/02 13:39:13;;;;;;;13.18;1.92;;;18.10;99.90;;;;;;4981316;28;20062;-87
2022/10/02 13:42:33;;;;;;;8.23;1.55;;;18.10;99.90;;;;;;4953667;28;20124;-87
2022/10/02 13:45:22;;;;;;;9.40;2.15;;;18.20;99.90;;;;;;4982669;28;20415;-88
2022/10/02 13:48:35;;;;;;;11.70;1.63;;;18.20;99.90;;;;;;4969589;28;20450;-88
2022/10/02 13:52:04;;;;;;;10.13;1.75;;;18.30;99.90;;;;;;4984700;28;20049;-88
2022/10/02 13:55:24;;;;;;;11.45;2.40;;;18.40;99.90;;;;;;4948435;28;20061;-88
2022/10/02 13:59:08;;;;;;;9.48;1.38;;;18.50;99.90;;;;;;4964488;28;20045;-87
2022/10/02 14:02:49;;;;;;;11.60;2.10;;;18.40;99.90;;;;;;4966430;28;20136;-88
2022/10/02 14:06:01;;;;;;;10.98;2.17;;;18.40;99.90;;;;;;4932815;29;20538;-88
2022/10/02 14:08:52;;;;;;;9.52;2.05;;;18.30;99.90;;;;;;4951899;28;20045;-88
2022/10/02 14:12:05;;;;;;;12.43;2.05;;;18.20;99.90;;;;;;4954207;28;20038;-87
2022/10/02 14:15:40;;;;;;;9.88;2.40;;;18.10;99.90;;;;;;4976436;28;20052;-87
2022/10/02 14:19:03;;;;;;;10.43;1.55;;;18.10;99.90;;;;;;4941438;28;20735;-87
2022/10/02 14:22:00;;;;;;;8.88;1.60;;;17.90;99.90;;;;;;4967799;28;20046;-87
2022/10/02 14:25:11;;;;;;;9.13;2.00;;;17.90;99.90;;;;;;4980771;28;20034;-87
2022/10/02 14:28:53;;;;;;;10.02;1.67;;;17.80;99.90;;;;;;4946877;28;20053;-87
2022/10/02 14:32:27;;;;;;;7.60;1.48;;;17.60;99.90;;;;;;4984377;28;20050;-88
2022/10/02 14:35:30;;;;;;;11.13;1.55;;;17.40;99.90;;;;;;4957545;28;20038;-87
2022/10/02 14:38:26;;;;;;;13.55;1.92;;;17.30;99.90;;;;;;4999487;28;20038;-87
2022/10/02 14:40:53;;;;;;;12.65;2.35;;;17.20;99.90;;;;;;4958400;28;20042;-87
2022/10/02 14:43:37;;;;;;;10.52;1.80;;;17.10;99.90;;;;;;4977102;28;20142;-87
2022/10/02 14:46:24;;;;;;;12.10;1.70;;;17.10;99.90;;;;;;4967806;28;20054;-87
2022/10/02 14:49:16;;;;;;;9.52;1.88;;;17.00;99.90;;;;;;4971312;28;20618;-87
2022/10/02 14:52:13;;;;;;;10.07;1.63;;;17.00;99.90;;;;;;4971764;28;20066;-87
2022/10/02 14:55:14;;;;;;;16.02;2.13;;;17.00;99.90;;;;;;4962097;28;20046;-87
2022/10/02 14:57:59;;;;;;;8.77;1.33;;;16.90;99.90;;;;;;4965969;28;20058;-87
2022/10/02 15:00:51;;;;;;;13.05;2.08;;;17.00;99.90;;;;;;4985105;28;20109;-88
2022/10/02 15:03:40;;;;;;;9.65;2.63;;;17.00;99.90;;;;;;4973903;28;20054;-87
2022/10/02 15:06:26;;;;;;;12.88;2.10;;;17.00;99.90;;;;;;4956256;28;20806;-87
2022/10/02 15:08:59;;;;;;;8.38;1.52;;;16.90;99.90;;;;;;4976973;28;20733;-87
2022/10/02 15:11:37;;;;;;;12.27;2.05;;;16.80;99.90;;;;;;4966175;28;20583;-87
2022/10/02 15:14:15;;;;;;;11.52;2.33;;;17.00;99.90;;;;;;4984535;28;20047;-87
2022/10/02 15:20:05;;;;;;;13.85;2.75;;;16.40;99.90;;;;;;4988143;28;20124;-87
2022/10/02 15:22:37;;;;;;;11.43;2.03;;;16.30;99.90;;;;;;4969702;28;20046;-87
2022/10/02 15:25:25;;;;;;;11.23;1.50;;;16.10;99.90;;;;;;4971270;28;20105;-87
2022/10/02 15:28:13;;;;;;;14.50;2.47;;;16.00;99.90;;;;;;4997734;28;20049;-87
2022/10/02 15:30:51;;;;;;;8.43;1.38;;;16.00;99.90;;;;;;4966884;28;20046;-87
2022/10/02 15:33:51;;;;;;;12.35;2.55;;;15.90;99.90;;;;;;4972079;28;20042;-86